sensor_id;sensor_type;location;lat;lon;timestamp;pressure;altitude;pressure_sealevel;temperature;humidity
46007;BME280;31738;50.188;8.524;2023-02-26T00:00:15;98813.13;;;2.15;61.30
46007;BME280;31738;50.188;8.524;2023-02-26T00:02:41;98812.53;;;2.13;61.00
46007;BME280;31738;50.188;8.524;2023-02-26T00:05:08;98809.69;;;2.14;61.13
46007;BME280;31738;50.188;8.524;2023-02-26T00:07:33;98812.75;;;2.11;61.40
46007;BME280;31738;50.188;8.524;2023-02-26T00:09:59;98810.91;;;2.12;61.44
46007;BME280;31738;50.188;8.524;2023-02-26T00:12:29;98813.13;;;2.15;61.31
46007;BME280;31738;50.188;8.524;2023-02-26T00:14:55;98814.16;;;2.14;61.27
46007;BME280;31738;50.188;8.524;2023-02-26T00:19:59;98820.53;;;2.06;61.24
46007;BME280;31738;50.188;8.524;2023-02-26T00:22:25;98825.22;;;2.04;61.12
46007;BME280;31738;50.188;8.524;2023-02-26T00:24:51;98820.53;;;2.06;61.35
46007;BME280;31738;50.188;8.524;2023-02-26T00:27:17;98825.22;;;2.04;61.34
46007;BME280;31738;50.188;8.524;2023-02-26T00:29:43;98820.13;;;2.03;61.66
46007;BME280;31738;50.188;8.524;2023-02-26T00:32:10;98816.50;;;2.04;61.58
46007;BME280;31738;50.188;8.524;2023-02-26T00:34:35;98822.34;;;2.06;61.57
46007;BME280;31738;50.188;8.524;2023-02-26T00:37:15;98818.09;;;2.05;61.30
46007;BME280;31738;50.188;8.524;2023-02-26T00:40:00;98822.78;;;2.03;61.51
46007;BME280;31738;50.188;8.524;2023-02-26T00:42:29;98822.66;;;1.98;61.95
46007;BME280;31738;50.188;8.524;2023-02-26T00:44:55;98827.06;;;2.04;62.00
46007;BME280;31738;50.188;8.524;2023-02-26T00:47:29;98819.34;;;2.02;61.46
46007;BME280;31738;50.188;8.524;2023-02-26T00:55:29;98823.00;;;2.01;61.90
46007;BME280;31738;50.188;8.524;2023-02-26T00:57:54;98821.34;;;2.07;61.99
46007;BME280;31738;50.188;8.524;2023-02-26T01:00:20;98823.56;;;2.10;61.95
46007;BME280;31738;50.188;8.524;2023-02-26T01:02:46;98821.47;;;2.12;62.06
46007;BME280;31738;50.188;8.524;2023-02-26T01:05:13;98822.09;;;2.14;61.65
46007;BME280;31738;50.188;8.524;2023-02-26T01:10:19;98815.75;;;2.15;61.67
46007;BME280;31738;50.188;8.524;2023-02-26T01:12:44;98818.41;;;2.15;62.32
46007;BME280;31738;50.188;8.524;2023-02-26T01:15:11;98818.00;;;2.18;62.25
46007;BME280;31738;50.188;8.524;2023-02-26T01:17:46;98833.50;;;2.14;60.72
46007;BME280;31738;50.188;8.524;2023-02-26T01:20:23;98820.81;;;2.16;61.98
46007;BME280;31738;50.188;8.524;2023-02-26T01:22:59;98834.28;;;2.15;62.02
46007;BME280;31738;50.188;8.524;2023-02-26T01:28:10;98831.50;;;2.10;62.30
46007;BME280;31738;50.188;8.524;2023-02-26T01:30:36;98836.78;;;2.10;62.39
46007;BME280;31738;50.188;8.524;2023-02-26T01:33:24;98836.81;;;2.03;61.82
46007;BME280;31738;50.188;8.524;2023-02-26T01:36:07;98834.50;;;1.89;63.41
46007;BME280;31738;50.188;8.524;2023-02-26T01:38:56;98837.94;;;1.89;62.99
46007;BME280;31738;50.188;8.524;2023-02-26T01:41:45;98837.78;;;1.84;63.27
46007;BME280;31738;50.188;8.524;2023-02-26T01:44:29;98839.47;;;1.78;64.53
46007;BME280;31738;50.188;8.524;2023-02-26T01:47:03;98854.50;;;1.78;63.68
46007;BME280;31738;50.188;8.524;2023-02-26T01:49:32;98846.34;;;1.79;63.91
46007;BME280;31738;50.188;8.524;2023-02-26T01:51:59;98843.72;;;1.79;64.12
46007;BME280;31738;50.188;8.524;2023-02-26T01:54:32;98840.31;;;1.72;65.18
46007;BME280;31738;50.188;8.524;2023-02-26T01:57:01;98854.16;;;1.74;65.06
46007;BME280;31738;50.188;8.524;2023-02-26T01:59:31;98836.22;;;1.76;65.21
46007;BME280;31738;50.188;8.524;2023-02-26T02:01:58;98826.47;;;1.77;65.80
46007;BME280;31738;50.188;8.524;2023-02-26T02:04:26;98837.03;;;1.77;65.72
46007;BME280;31738;50.188;8.524;2023-02-26T02:06:53;98830.13;;;1.76;66.25
46007;BME280;31738;50.188;8.524;2023-02-26T02:09:19;98819.34;;;1.77;66.19
46007;BME280;31738;50.188;8.524;2023-02-26T02:12:14;98827.72;;;1.74;67.29
46007;BME280;31738;50.188;8.524;2023-02-26T02:22:59;98815.19;;;1.63;67.37
46007;BME280;31738;50.188;8.524;2023-02-26T02:28:49;98815.44;;;1.55;68.37
46007;BME280;31738;50.188;8.524;2023-02-26T02:31:16;98818.94;;;1.49;68.63
46007;BME280;31738;50.188;8.524;2023-02-26T02:33:54;98815.69;;;1.47;68.96
46007;BME280;31738;50.188;8.524;2023-02-26T02:36:29;98822.59;;;1.48;69.64
46007;BME280;31738;50.188;8.524;2023-02-26T02:39:03;98814.28;;;1.45;69.29
46007;BME280;31738;50.188;8.524;2023-02-26T02:41:37;98819.34;;;1.46;69.52
46007;BME280;31738;50.188;8.524;2023-02-26T02:44:06;98818.09;;;1.49;69.53
46007;BME280;31738;50.188;8.524;2023-02-26T02:46:38;98817.75;;;1.45;69.75
46007;BME280;31738;50.188;8.524;2023-02-26T02:49:08;98823.03;;;1.45;69.48
46007;BME280;31738;50.188;8.524;2023-02-26T02:51:41;98819.78;;;1.43;69.91
46007;BME280;31738;50.188;8.524;2023-02-26T02:54:16;98821.81;;;1.41;69.89
46007;BME280;31738;50.188;8.524;2023-02-26T02:56:50;98819.19;;;1.41;70.38
46007;BME280;31738;50.188;8.524;2023-02-26T02:59:24;98814.72;;;1.42;70.33
46007;BME280;31738;50.188;8.524;2023-02-26T03:02:20;98817.13;;;1.43;70.08
46007;BME280;31738;50.188;8.524;2023-02-26T03:04:43;98818.97;;;1.43;70.34
46007;BME280;31738;50.188;8.524;2023-02-26T03:07:09;98810.81;;;1.44;70.53
46007;BME280;31738;50.188;8.524;2023-02-26T03:09:34;98818.16;;;1.42;70.82
46007;BME280;31738;50.188;8.524;2023-02-26T03:12:01;98823.47;;;1.42;70.46
46007;BME280;31738;50.188;8.524;2023-02-26T03:14:28;98819.38;;;1.40;70.78
46007;BME280;31738;50.188;8.524;2023-02-26T03:17:19;98820.22;;;1.40;70.43
46007;BME280;31738;50.188;8.524;2023-02-26T03:20:12;98830.19;;;1.32;70.48
46007;BME280;31738;50.188;8.524;2023-02-26T03:26:55;98835.78;;;1.17;70.92
46007;BME280;31738;50.188;8.524;2023-02-26T03:29:47;98827.84;;;1.17;71.10
46007;BME280;31738;50.188;8.524;2023-02-26T03:35:13;98825.63;;;1.14;71.47
46007;BME280;31738;50.188;8.524;2023-02-26T03:37:44;98835.97;;;1.16;71.48
46007;BME280;31738;50.188;8.524;2023-02-26T03:40:17;98828.47;;;1.19;71.51
46007;BME280;31738;50.188;8.524;2023-02-26T03:42:49;98834.75;;;1.18;71.71
46007;BME280;31738;50.188;8.524;2023-02-26T03:45:22;98839.44;;;1.16;71.68
46007;BME280;31738;50.188;8.524;2023-02-26T03:47:51;98830.09;;;1.14;71.58
46007;BME280;31738;50.188;8.524;2023-02-26T03:50:24;98845.94;;;1.14;71.56
46007;BME280;31738;50.188;8.524;2023-02-26T03:53:13;98841.09;;;1.11;71.75
46007;BME280;31738;50.188;8.524;2023-02-26T03:56:10;98851.66;;;1.04;72.07
46007;BME280;31738;50.188;8.524;2023-02-26T03:59:04;98853.13;;;1.00;72.38
46007;BME280;31738;50.188;8.524;2023-02-26T04:02:11;98857.00;;;0.98;72.37
46007;BME280;31738;50.188;8.524;2023-02-26T04:04:46;98859.22;;;1.01;72.27
46007;BME280;31738;50.188;8.524;2023-02-26T04:07:14;98849.72;;;0.80;72.56
46007;BME280;31738;50.188;8.524;2023-02-26T04:09:42;98849.31;;;0.83;72.37
46007;BME280;31738;50.188;8.524;2023-02-26T04:12:07;98854.59;;;0.83;72.65
46007;BME280;31738;50.188;8.524;2023-02-26T04:14:34;98855.81;;;0.87;72.45
46007;BME280;31738;50.188;8.524;2023-02-26T04:16:59;98857.63;;;0.87;72.35
46007;BME280;31738;50.188;8.524;2023-02-26T04:19:25;98857.44;;;0.88;72.47
46007;BME280;31738;50.188;8.524;2023-02-26T04:21:51;98861.69;;;0.89;72.28
46007;BME280;31738;50.188;8.524;2023-02-26T04:24:17;98865.97;;;0.90;72.17
46007;BME280;31738;50.188;8.524;2023-02-26T04:26:43;98869.19;;;0.92;72.43
46007;BME280;31738;50.188;8.524;2023-02-26T04:29:08;98873.66;;;0.92;72.15
46007;BME280;31738;50.188;8.524;2023-02-26T04:31:34;98877.72;;;0.88;72.42
46007;BME280;31738;50.188;8.524;2023-02-26T04:33:59;98880.56;;;0.86;72.04
46007;BME280;31738;50.188;8.524;2023-02-26T04:36:25;98886.69;;;0.87;72.03
46007;BME280;31738;50.188;8.524;2023-02-26T04:38:50;98891.13;;;0.86;71.79
46007;BME280;31738;50.188;8.524;2023-02-26T04:41:16;98889.09;;;0.88;71.83
46007;BME280;31738;50.188;8.524;2023-02-26T04:43:43;98901.28;;;0.89;71.88
46007;BME280;31738;50.188;8.524;2023-02-26T04:46:17;98900.09;;;0.85;72.12
46007;BME280;31738;50.188;8.524;2023-02-26T04:48:43;98903.75;;;0.84;72.19
46007;BME280;31738;50.188;8.524;2023-02-26T04:51:08;98896.41;;;0.86;72.21
46007;BME280;31738;50.188;8.524;2023-02-26T04:53:34;98895.41;;;0.87;71.71
46007;BME280;31738;50.188;8.524;2023-02-26T04:55:59;98896.81;;;0.83;71.75
46007;BME280;31738;50.188;8.524;2023-02-26T04:58:25;98908.22;;;0.84;71.62
46007;BME280;31738;50.188;8.524;2023-02-26T05:00:52;98896.81;;;0.83;71.97
46007;BME280;31738;50.188;8.524;2023-02-26T05:03:20;98906.81;;;0.81;71.27
46007;BME280;31738;50.188;8.524;2023-02-26T05:05:46;98913.09;;;0.80;71.57
46007;BME280;31738;50.188;8.524;2023-02-26T05:08:12;98909.81;;;0.78;71.84
46007;BME280;31738;50.188;8.524;2023-02-26T05:10:38;98907.19;;;0.78;71.47
46007;BME280;31738;50.188;8.524;2023-02-26T05:13:04;98909.81;;;0.78;71.72
46007;BME280;31738;50.188;8.524;2023-02-26T05:15:29;98917.16;;;0.70;71.95
46007;BME280;31738;50.188;8.524;2023-02-26T05:17:56;98903.34;;;0.74;71.61
46007;BME280;31738;50.188;8.524;2023-02-26T05:20:21;98909.66;;;0.73;71.55
46007;BME280;31738;50.188;8.524;2023-02-26T05:22:47;98919.19;;;0.74;71.76
46007;BME280;31738;50.188;8.524;2023-02-26T05:25:12;98927.09;;;0.74;71.92
46007;BME280;31738;50.188;8.524;2023-02-26T05:27:39;98920.81;;;0.75;71.52
46007;BME280;31738;50.188;8.524;2023-02-26T05:30:08;98925.88;;;0.77;71.75
46007;BME280;31738;50.188;8.524;2023-02-26T05:32:35;98927.72;;;0.76;71.61
46007;BME280;31738;50.188;8.524;2023-02-26T05:35:00;98935.03;;;0.74;71.48
46007;BME280;31738;50.188;8.524;2023-02-26T05:37:32;98944.78;;;0.67;71.96
46007;BME280;31738;50.188;8.524;2023-02-26T05:40:05;98941.13;;;0.68;71.71
46007;BME280;31738;50.188;8.524;2023-02-26T05:42:31;98946.81;;;0.65;71.86
46007;BME280;31738;50.188;8.524;2023-02-26T05:44:56;98951.69;;;0.68;71.80
46007;BME280;31738;50.188;8.524;2023-02-26T05:47:22;98950.84;;;0.68;71.89
46007;BME280;31738;50.188;8.524;2023-02-26T05:49:48;98953.91;;;0.71;71.46
46007;BME280;31738;50.188;8.524;2023-02-26T05:52:14;98950.25;;;0.72;72.06
46007;BME280;31738;50.188;8.524;2023-02-26T05:54:43;98951.06;;;0.73;72.10
46007;BME280;31738;50.188;8.524;2023-02-26T05:57:08;98957.38;;;0.72;71.77
46007;BME280;31738;50.188;8.524;2023-02-26T05:59:34;98951.28;;;0.71;71.69
46007;BME280;31738;50.188;8.524;2023-02-26T06:01:59;98950.84;;;0.74;71.32
46007;BME280;31738;50.188;8.524;2023-02-26T06:04:24;98960.00;;;0.72;71.46
46007;BME280;31738;50.188;8.524;2023-02-26T06:06:50;98967.72;;;0.73;71.19
46007;BME280;31738;50.188;8.524;2023-02-26T06:09:15;98969.34;;;0.74;71.66
46007;BME280;31738;50.188;8.524;2023-02-26T06:11:41;98984.97;;;0.76;71.85
46007;BME280;31738;50.188;8.524;2023-02-26T06:14:06;98988.22;;;0.71;71.36
46007;BME280;31738;50.188;8.524;2023-02-26T06:16:32;98993.09;;;0.74;71.52
46007;BME280;31738;50.188;8.524;2023-02-26T06:19:00;98989.44;;;0.75;71.51
46007;BME280;31738;50.188;8.524;2023-02-26T06:21:26;98997.97;;;0.77;71.37
46007;BME280;31738;50.188;8.524;2023-02-26T06:23:51;98997.13;;;0.77;71.49
46007;BME280;31738;50.188;8.524;2023-02-26T06:26:17;99004.84;;;0.78;71.55
46007;BME280;31738;50.188;8.524;2023-02-26T06:28:42;99001.63;;;0.76;71.53
46007;BME280;31738;50.188;8.524;2023-02-26T06:31:07;99017.88;;;0.73;71.59
46007;BME280;31738;50.188;8.524;2023-02-26T06:33:33;99018.47;;;0.75;71.52
46007;BME280;31738;50.188;8.524;2023-02-26T06:35:58;99023.56;;;0.70;71.70
46007;BME280;31738;50.188;8.524;2023-02-26T06:38:25;99024.75;;;0.68;71.46
46007;BME280;31738;50.188;8.524;2023-02-26T06:40:51;99024.38;;;0.64;71.85
46007;BME280;31738;50.188;8.524;2023-02-26T06:43:17;99031.69;;;0.69;71.50
46007;BME280;31738;50.188;8.524;2023-02-26T06:45:42;99041.22;;;0.70;71.54
46007;BME280;31738;50.188;8.524;2023-02-26T06:48:08;99042.03;;;0.70;71.54
46007;BME280;31738;50.188;8.524;2023-02-26T06:50:33;99052.59;;;0.70;71.50
46007;BME280;31738;50.188;8.524;2023-02-26T06:52:58;99055.63;;;0.74;71.21
46007;BME280;31738;50.188;8.524;2023-02-26T06:55:24;99066.19;;;0.67;71.58
46007;BME280;31738;50.188;8.524;2023-02-26T06:57:55;99076.53;;;0.69;71.64
46007;BME280;31738;50.188;8.524;2023-02-26T07:00:22;99082.81;;;0.68;72.02
46007;BME280;31738;50.188;8.524;2023-02-26T07:02:49;99078.75;;;0.65;71.90
46007;BME280;31738;50.188;8.524;2023-02-26T07:05:14;99073.09;;;0.68;71.99
46007;BME280;31738;50.188;8.524;2023-02-26T07:07:40;99072.88;;;0.70;71.94
46007;BME280;31738;50.188;8.524;2023-02-26T07:10:06;99085.25;;;0.69;71.75
46007;BME280;31738;50.188;8.524;2023-02-26T07:12:31;99084.25;;;0.70;71.67
46007;BME280;31738;50.188;8.524;2023-02-26T07:14:57;99085.03;;;0.71;71.57
46007;BME280;31738;50.188;8.524;2023-02-26T07:17:22;99090.94;;;0.73;71.42
46007;BME280;31738;50.188;8.524;2023-02-26T07:19:51;99095.81;;;0.76;71.78
46007;BME280;31738;50.188;8.524;2023-02-26T07:22:18;99098.47;;;0.76;71.60
46007;BME280;31738;50.188;8.524;2023-02-26T07:24:44;99097.22;;;0.78;71.14
46007;BME280;31738;50.188;8.524;2023-02-26T07:27:10;99087.50;;;0.79;71.18
46007;BME280;31738;50.188;8.524;2023-02-26T07:29:36;99112.88;;;0.80;71.49
46007;BME280;31738;50.188;8.524;2023-02-26T07:32:02;99104.78;;;0.81;71.00
46007;BME280;31738;50.188;8.524;2023-02-26T07:34:28;99110.44;;;0.85;70.93
46007;BME280;31738;50.188;8.524;2023-02-26T07:36:53;99116.16;;;0.88;70.55
46007;BME280;31738;50.188;8.524;2023-02-26T07:39:19;99118.59;;;0.90;70.54
46007;BME280;31738;50.188;8.524;2023-02-26T07:41:44;99125.47;;;0.91;70.64
46007;BME280;31738;50.188;8.524;2023-02-26T07:44:13;99124.88;;;0.95;70.62
46007;BME280;31738;50.188;8.524;2023-02-26T07:46:39;99133.19;;;0.92;70.29
46007;BME280;31738;50.188;8.524;2023-02-26T07:49:04;99138.28;;;0.94;70.26
46007;BME280;31738;50.188;8.524;2023-02-26T07:51:29;99149.06;;;0.99;70.30
46007;BME280;31738;50.188;8.524;2023-02-26T07:53:55;99143.38;;;1.02;70.21
46007;BME280;31738;50.188;8.524;2023-02-26T07:56:20;99162.84;;;1.07;69.92
46007;BME280;31738;50.188;8.524;2023-02-26T07:58:46;99163.88;;;1.06;69.52
46007;BME280;31738;50.188;8.524;2023-02-26T08:01:11;99171.81;;;1.06;69.51
46007;BME280;31738;50.188;8.524;2023-02-26T08:03:37;99174.25;;;1.14;69.74
46007;BME280;31738;50.188;8.524;2023-02-26T08:06:02;99175.06;;;1.21;69.21
46007;BME280;31738;50.188;8.524;2023-02-26T08:08:29;99177.28;;;1.24;69.32
46007;BME280;31738;50.188;8.524;2023-02-26T08:10:55;99185.44;;;1.29;68.93
46007;BME280;31738;50.188;8.524;2023-02-26T08:13:20;99191.34;;;1.31;68.74
46007;BME280;31738;50.188;8.524;2023-02-26T08:15:49;99198.03;;;1.34;68.41
46007;BME280;31738;50.188;8.524;2023-02-26T08:18:14;99192.34;;;1.37;68.29
46007;BME280;31738;50.188;8.524;2023-02-26T08:20:40;99198.66;;;1.42;68.13
46007;BME280;31738;50.188;8.524;2023-02-26T08:23:05;99205.16;;;1.53;68.09
46007;BME280;31738;50.188;8.524;2023-02-26T08:25:31;99216.53;;;1.60;68.16
46007;BME280;31738;50.188;8.524;2023-02-26T08:27:57;99224.25;;;1.68;67.56
46007;BME280;31738;50.188;8.524;2023-02-26T08:30:23;99214.94;;;1.65;67.10
46007;BME280;31738;50.188;8.524;2023-02-26T08:32:48;99223.06;;;1.64;67.40
46007;BME280;31738;50.188;8.524;2023-02-26T08:35:14;99223.44;;;1.67;67.19
46007;BME280;31738;50.188;8.524;2023-02-26T08:37:40;99228.94;;;1.79;66.95
46007;BME280;31738;50.188;8.524;2023-02-26T08:40:07;99249.88;;;1.74;65.98
46007;BME280;31738;50.188;8.524;2023-02-26T08:42:35;99238.47;;;1.73;66.45
46007;BME280;31738;50.188;8.524;2023-02-26T08:45:01;99248.66;;;1.76;66.31
46007;BME280;31738;50.188;8.524;2023-02-26T08:47:26;99256.38;;;1.78;66.58
46007;BME280;31738;50.188;8.524;2023-02-26T08:49:52;99249.06;;;1.73;65.86
46007;BME280;31738;50.188;8.524;2023-02-26T08:52:18;99265.53;;;1.75;65.53
46007;BME280;31738;50.188;8.524;2023-02-26T08:54:44;99265.75;;;1.81;65.40
46007;BME280;31738;50.188;8.524;2023-02-26T08:57:09;99264.53;;;1.90;65.08
46007;BME280;31738;50.188;8.524;2023-02-26T08:59:35;99277.13;;;1.88;64.96
46007;BME280;31738;50.188;8.524;2023-02-26T09:02:00;99271.84;;;1.94;65.13
46007;BME280;31738;50.188;8.524;2023-02-26T09:04:26;99279.78;;;2.01;64.76
46007;BME280;31738;50.188;8.524;2023-02-26T09:06:52;99282.81;;;2.11;64.79
46007;BME280;31738;50.188;8.524;2023-02-26T09:09:18;99292.16;;;2.20;64.38
46007;BME280;31738;50.188;8.524;2023-02-26T09:11:44;99286.66;;;2.28;63.97
46007;BME280;31738;50.188;8.524;2023-02-26T09:14:09;99305.38;;;2.33;63.36
46007;BME280;31738;50.188;8.524;2023-02-26T09:16:35;99298.22;;;2.40;62.63
46007;BME280;31738;50.188;8.524;2023-02-26T09:19:03;99302.28;;;2.49;62.41
46007;BME280;31738;50.188;8.524;2023-02-26T09:21:29;99298.16;;;2.66;62.87
46007;BME280;31738;50.188;8.524;2023-02-26T09:23:54;99298.91;;;2.79;61.77
46007;BME280;31738;50.188;8.524;2023-02-26T09:26:20;99325.41;;;2.79;60.69
46007;BME280;31738;50.188;8.524;2023-02-26T09:28:45;99323.94;;;2.90;60.38
46007;BME280;31738;50.188;8.524;2023-02-26T09:31:11;99347.75;;;3.03;59.89
46007;BME280;31738;50.188;8.524;2023-02-26T09:33:36;99352.13;;;3.22;60.69
46007;BME280;31738;50.188;8.524;2023-02-26T09:36:02;99357.81;;;3.32;60.12
46007;BME280;31738;50.188;8.524;2023-02-26T09:38:28;99350.59;;;3.45;59.87
46007;BME280;31738;50.188;8.524;2023-02-26T09:40:57;99359.53;;;3.51;59.27
46007;BME280;31738;50.188;8.524;2023-02-26T09:46:39;99367.97;;;3.73;58.97
46007;BME280;31738;50.188;8.524;2023-02-26T09:49:20;99383.63;;;3.81;57.36
46007;BME280;31738;50.188;8.524;2023-02-26T09:51:51;99389.50;;;3.89;58.18
46007;BME280;31738;50.188;8.524;2023-02-26T09:54:22;99397.63;;;3.94;57.30
46007;BME280;31738;50.188;8.524;2023-02-26T09:56:53;99399.59;;;4.05;57.38
46007;BME280;31738;50.188;8.524;2023-02-26T09:59:19;99398.78;;;4.05;57.53
46007;BME280;31738;50.188;8.524;2023-02-26T10:01:47;99407.13;;;4.08;56.61
46007;BME280;31738;50.188;8.524;2023-02-26T10:11:59;99440.22;;;3.68;56.33
46007;BME280;31738;50.188;8.524;2023-02-26T10:14:41;99443.28;;;3.72;57.22
46007;BME280;31738;50.188;8.524;2023-02-26T10:19:43;99453.69;;;3.67;56.16
46007;BME280;31738;50.188;8.524;2023-02-26T10:22:21;99468.19;;;3.64;55.99
46007;BME280;31738;50.188;8.524;2023-02-26T10:24:53;99467.34;;;3.70;56.52
46007;BME280;31738;50.188;8.524;2023-02-26T10:27:34;99461.84;;;3.72;56.75
46007;BME280;31738;50.188;8.524;2023-02-26T10:32:47;99495.00;;;3.43;56.88
46007;BME280;31738;50.188;8.524;2023-02-26T10:35:16;99489.94;;;3.35;57.40
46007;BME280;31738;50.188;8.524;2023-02-26T10:37:51;99485.41;;;3.42;57.19
46007;BME280;31738;50.188;8.524;2023-02-26T10:40:46;99509.31;;;3.35;54.97
46007;BME280;31738;50.188;8.524;2023-02-26T10:43:21;99485.38;;;3.55;56.94
46007;BME280;31738;50.188;8.524;2023-02-26T10:48:54;99477.53;;;3.80;55.26
46007;BME280;31738;50.188;8.524;2023-02-26T10:51:27;99506.91;;;3.78;55.42
46007;BME280;31738;50.188;8.524;2023-02-26T10:54:17;99504.69;;;3.75;54.64
46007;BME280;31738;50.188;8.524;2023-02-26T10:56:43;99493.41;;;3.86;56.22
46007;BME280;31738;50.188;8.524;2023-02-26T10:59:09;99505.84;;;3.92;55.84
46007;BME280;31738;50.188;8.524;2023-02-26T11:01:34;99506.19;;;4.02;56.60
46007;BME280;31738;50.188;8.524;2023-02-26T11:04:04;99508.34;;;4.18;55.60
46007;BME280;31738;50.188;8.524;2023-02-26T11:06:34;99504.66;;;4.19;54.95
46007;BME280;31738;50.188;8.524;2023-02-26T11:09:06;99516.09;;;4.20;54.56
46007;BME280;31738;50.188;8.524;2023-02-26T11:11:48;99527.84;;;3.93;53.70
46007;BME280;31738;50.188;8.524;2023-02-26T11:14:15;99532.81;;;3.83;54.30
46007;BME280;31738;50.188;8.524;2023-02-26T11:16:46;99544.09;;;3.65;54.54
46007;BME280;31738;50.188;8.524;2023-02-26T11:19:13;99542.03;;;3.74;54.37
46007;BME280;31738;50.188;8.524;2023-02-26T11:21:43;99549.81;;;3.62;53.66
46007;BME280;31738;50.188;8.524;2023-02-26T11:24:15;99549.00;;;3.62;54.33
46007;BME280;31738;50.188;8.524;2023-02-26T11:26:47;99552.66;;;3.67;53.92
46007;BME280;31738;50.188;8.524;2023-02-26T11:29:18;99548.19;;;3.68;54.20
46007;BME280;31738;50.188;8.524;2023-02-26T11:31:47;99547.72;;;3.77;54.11
46007;BME280;31738;50.188;8.524;2023-02-26T11:34:12;99550.97;;;3.79;54.54
46007;BME280;31738;50.188;8.524;2023-02-26T11:36:41;99546.91;;;3.83;53.99
46007;BME280;31738;50.188;8.524;2023-02-26T11:39:17;99549.38;;;3.78;54.02
46007;BME280;31738;50.188;8.524;2023-02-26T11:41:44;99550.41;;;3.71;53.75
46007;BME280;31738;50.188;8.524;2023-02-26T11:46:57;99554.06;;;3.70;52.96
46007;BME280;31738;50.188;8.524;2023-02-26T11:49:27;99553.03;;;3.77;53.63
46007;BME280;31738;50.188;8.524;2023-02-26T11:52:17;99549.13;;;3.86;54.21
46007;BME280;31738;50.188;8.524;2023-02-26T11:54:45;99534.53;;;4.08;53.54
46007;BME280;31738;50.188;8.524;2023-02-26T11:57:25;99530.72;;;4.35;53.20
46007;BME280;31738;50.188;8.524;2023-02-26T11:59:52;99533.50;;;4.47;52.67
46007;BME280;31738;50.188;8.524;2023-02-26T12:02:21;99528.19;;;4.47;53.36
46007;BME280;31738;50.188;8.524;2023-02-26T12:04:52;99532.22;;;4.49;52.70
46007;BME280;31738;50.188;8.524;2023-02-26T12:07:18;99548.03;;;4.44;53.22
46007;BME280;31738;50.188;8.524;2023-02-26T12:09:45;99525.75;;;4.45;53.15
46007;BME280;31738;50.188;8.524;2023-02-26T12:12:27;99524.66;;;4.53;53.53
46007;BME280;31738;50.188;8.524;2023-02-26T12:15:14;99536.78;;;4.42;53.59
46007;BME280;31738;50.188;8.524;2023-02-26T12:17:53;99529.69;;;4.36;53.76
46007;BME280;31738;50.188;8.524;2023-02-26T12:20:28;99528.22;;;4.40;53.82
46007;BME280;31738;50.188;8.524;2023-02-26T12:23:13;99531.91;;;4.39;53.26
46007;BME280;31738;50.188;8.524;2023-02-26T12:28:47;99526.19;;;4.36;54.01
46007;BME280;31738;50.188;8.524;2023-02-26T12:31:26;99524.81;;;4.27;54.33
46007;BME280;31738;50.188;8.524;2023-02-26T12:36:58;99531.06;;;4.45;54.12
46007;BME280;31738;50.188;8.524;2023-02-26T12:47:33;99539.53;;;4.60;53.68
46007;BME280;31738;50.188;8.524;2023-02-26T12:50:27;99531.94;;;4.64;53.26
46007;BME280;31738;50.188;8.524;2023-02-26T12:58:58;99543.28;;;4.77;54.09
46007;BME280;31738;50.188;8.524;2023-02-26T13:07:13;99545.66;;;4.61;53.64
46007;BME280;31738;50.188;8.524;2023-02-26T13:09:57;99556.75;;;4.51;54.77
46007;BME280;31738;50.188;8.524;2023-02-26T13:15:34;99554.84;;;4.34;54.45
46007;BME280;31738;50.188;8.524;2023-02-26T13:21:06;99560.13;;;4.34;54.48
46007;BME280;31738;50.188;8.524;2023-02-26T13:23:41;99556.41;;;4.41;55.02
46007;BME280;31738;50.188;8.524;2023-02-26T13:26:11;99560.50;;;4.37;55.09
46007;BME280;31738;50.188;8.524;2023-02-26T13:28:44;99554.78;;;4.40;54.31
46007;BME280;31738;50.188;8.524;2023-02-26T13:31:20;99551.97;;;4.35;54.61
46007;BME280;31738;50.188;8.524;2023-02-26T13:33:48;99555.22;;;4.31;55.21
46007;BME280;31738;50.188;8.524;2023-02-26T13:36:15;99550.41;;;4.21;55.00
46007;BME280;31738;50.188;8.524;2023-02-26T13:44:39;99562.31;;;4.06;55.12
46007;BME280;31738;50.188;8.524;2023-02-26T13:52:27;99532.06;;;4.13;55.70
46007;BME280;31738;50.188;8.524;2023-02-26T13:54:53;99546.28;;;4.25;55.59
46007;BME280;31738;50.188;8.524;2023-02-26T14:02:57;99545.94;;;4.15;55.37
46007;BME280;31738;50.188;8.524;2023-02-26T14:10:53;99548.38;;;4.17;55.00
46007;BME280;31738;50.188;8.524;2023-02-26T14:13:29;99545.53;;;4.12;54.75
46007;BME280;31738;50.188;8.524;2023-02-26T14:16:21;99547.56;;;4.16;54.48
46007;BME280;31738;50.188;8.524;2023-02-26T14:24:00;99546.38;;;4.43;54.48
46007;BME280;31738;50.188;8.524;2023-02-26T14:26:28;99546.09;;;4.58;54.38
46007;BME280;31738;50.188;8.524;2023-02-26T14:31:54;99558.25;;;4.72;53.77
46007;BME280;31738;50.188;8.524;2023-02-26T14:34:22;99568.75;;;4.60;53.14
46007;BME280;31738;50.188;8.524;2023-02-26T14:36:52;99568.97;;;4.59;53.67
46007;BME280;31738;50.188;8.524;2023-02-26T14:39:46;99573.94;;;4.49;52.27
46007;BME280;31738;50.188;8.524;2023-02-26T14:42:22;99573.97;;;4.42;53.39
46007;BME280;31738;50.188;8.524;2023-02-26T14:44:56;99571.50;;;4.47;53.65
46007;BME280;31738;50.188;8.524;2023-02-26T14:47:25;99579.28;;;4.42;53.63
46007;BME280;31738;50.188;8.524;2023-02-26T14:49:50;99586.06;;;4.38;53.67
46007;BME280;31738;50.188;8.524;2023-02-26T14:58:19;99586.47;;;4.35;52.83
46007;BME280;31738;50.188;8.524;2023-02-26T15:03:54;99610.22;;;4.17;51.96
46007;BME280;31738;50.188;8.524;2023-02-26T15:09:05;99613.69;;;4.24;52.58
46007;BME280;31738;50.188;8.524;2023-02-26T15:11:56;99625.75;;;4.20;52.30
46007;BME280;31738;50.188;8.524;2023-02-26T15:23:34;99657.50;;;3.89;51.77
46007;BME280;31738;50.188;8.524;2023-02-26T15:26:03;99673.22;;;3.84;51.21
46007;BME280;31738;50.188;8.524;2023-02-26T15:28:34;99666.69;;;3.87;51.71
46007;BME280;31738;50.188;8.524;2023-02-26T15:31:01;99664.44;;;3.97;51.86
46007;BME280;31738;50.188;8.524;2023-02-26T15:33:28;99676.03;;;4.02;51.85
46007;BME280;31738;50.188;8.524;2023-02-26T15:35:56;99675.00;;;4.03;51.28
46007;BME280;31738;50.188;8.524;2023-02-26T15:38:22;99671.16;;;3.99;51.52
46007;BME280;31738;50.188;8.524;2023-02-26T15:40:50;99674.03;;;3.91;50.61